Flight Track Log - Related Links

Times and Time Zones

All times are in EDT time to prevent confusion due to time zone crossing. See the C-GKPY flight status page for this flight to view local times or setup timezone preferences in your user account.

Time Position Orientation Groundspeed Altitude Reporting Facility
EDT Latitude Longitude Course Direction KTS MPH feet Rate Location/Type
Fri 01:37:26 PM 50.0667 -97.0167 360° North 80 92 1,800  Level Winnipeg Center
Fri 01:38:26 PM 50.0833 -97.0167 360° North 80 92 2,600 850 Climbing Winnipeg Center
Fri 01:39:26 PM 50.1000 -97.0167 360° North 80 92 3,500 750 Climbing Winnipeg Center
Fri 01:40:26 PM 50.0667 -97.0500 213° Southwest 130 150 4,100 300 Climbing Winnipeg Center
Fri 01:41:26 PM 50.0333 -97.0500 180° South 150 173 4,100  Level Winnipeg Center
Fri 01:42:26 PM 49.9833 -97.0500 180° South 150 173 4,100 300 Level Winnipeg Center
Fri 01:43:26 PM 49.9500 -97.0500 180° South 140 161 4,700 500 Climbing Winnipeg Center
Fri 01:44:26 PM 49.9167 -97.0000 136° Southeast 150 173 5,100 200 Climbing Winnipeg Center
Fri 01:45:26 PM 49.9167 -96.9167 90° East 160 184 5,100 -50 Level Winnipeg Center
Fri 01:46:26 PM 49.9000 -96.8667 117° Southeast 170 196 5,000 -250 Descending Winnipeg Center
Fri 01:47:26 PM 49.8833 -96.7833 107° East 170 196 4,600 -300 Descending Winnipeg Center
Fri 01:48:26 PM 49.8833 -96.7000 90° East 170 196 4,400 -250 Descending Winnipeg Center
Fri 01:49:26 PM 49.8833 -96.6333 90° East 170 196 4,100 -200 Descending Winnipeg Center
Fri 01:50:26 PM 49.8833 -96.5833 90° East 150 173 4,000 -50 Descending Winnipeg Center
Fri 01:51:26 PM 49.9000 -96.5167 69° East 90 104 4,000 50 Level Winnipeg Center
Fri 01:52:26 PM 49.9000 -96.5000 90° East 90 104 4,100 50 Climbing Winnipeg Center
Fri 01:53:26 PM 49.9167 -96.4667 52° Northeast 100 115 4,100 -50 Level Winnipeg Center
Fri 01:54:26 PM 49.9333 -96.5000 308° West 100 115 4,000  Descending Winnipeg Center
Fri 01:55:26 PM 49.9667 -96.5167 342° North 100 115 4,100  Climbing Winnipeg Center
Fri 01:56:26 PM 49.9833 -96.5500 308° West 130 150 4,000 -250 Descending Winnipeg Center
Fri 01:57:26 PM 50.0000 -96.5000 63° Northeast 140 161 3,600 -200 Descending Winnipeg Center
Fri 01:58:26 PM 49.9667 -96.4500 136° Southeast 150 173 3,600  Level Winnipeg Center
Fri 01:59:26 PM 49.9500 -96.4500 180° South 70 81 3,600 -50 Level Winnipeg Center
Fri 02:00:26 PM 49.9167 -96.4500 180° South 110 127 3,500 -50 Descending Winnipeg Center
Fri 02:01:26 PM 49.9167 -96.4667 270° West 100 115 3,500 -50 Level Winnipeg Center
Fri 02:02:26 PM 49.9333 -96.5167 297° West 80 92 3,400 -100 Descending Winnipeg Center
Fri 02:03:26 PM 49.9500 -96.5167 360° North 90 104 3,300 50 Descending Winnipeg Center
Fri 02:04:26 PM 49.9667 -96.5500 308° West 90 104 3,500 100 Climbing Winnipeg Center
Fri 02:05:26 PM 49.9667 -96.6000 270° West 100 115 3,500 50 Level Winnipeg Center
Fri 02:06:26 PM 49.9333 -96.6000 180° South 120 138 3,600 50 Climbing Winnipeg Center
Fri 02:07:26 PM 49.9333 -96.5500 90° East 130 150 3,600 -33 Level Winnipeg Center
Fri 02:09:26 PM 49.9167 -96.4167 101° East 120 138 3,500 -33 Descending Winnipeg Center
Fri 02:10:26 PM 49.9333 -96.4667 297° West 120 138 3,500  Level Winnipeg Center
Fri 02:11:26 PM 49.9333 -96.5167 270° West 100 115 3,500  Level Winnipeg Center
Fri 02:12:26 PM 49.9167 -96.5500 232° Southwest 100 115 3,500 300 Level Winnipeg Center
Fri 02:13:26 PM 49.9333 -96.6000 297° West 90 104 4,100 150 Climbing Winnipeg Center
Fri 02:14:26 PM 49.9333 -96.5167 90° East 140 161 3,800 -300 Descending Winnipeg Center
Fri 02:15:26 PM 49.9333 -96.5000 90° East 110 127 3,500 -50 Descending Winnipeg Center
Fri 02:16:26 PM 49.9333 -96.4500 90° East 100 115 3,700 300 Climbing Winnipeg Center
Fri 02:17:26 PM 49.9333 -96.4000 90° East 110 127 4,100 250 Climbing Winnipeg Center
Fri 02:18:26 PM 49.9500 -96.4500 297° West 120 138 4,200 -150 Climbing Winnipeg Center
Fri 02:19:26 PM 49.9500 -96.5000 270° West 100 115 3,800 -450 Descending Winnipeg Center
Fri 02:20:26 PM 49.9500 -96.5167 270° West 80 92 3,300 -150 Descending Winnipeg Center
Fri 02:21:26 PM 49.9500 -96.5500 270° West 80 92 3,500 200 Climbing Winnipeg Center
Fri 02:22:26 PM 49.9500 -96.6000 270° West 90 104 3,700 150 Climbing Winnipeg Center
Fri 02:23:26 PM 49.9500 -96.6333 270° West 110 127 3,800 -150 Climbing Winnipeg Center
Fri 02:24:26 PM 49.9500 -96.6833 270° West 120 138 3,400 -100 Descending Winnipeg Center
Fri 02:25:26 PM 49.9667 -96.7333 297° West 110 127 3,600  Climbing Winnipeg Center
Fri 02:26:26 PM 49.9667 -96.7833 270° West 120 138 3,400 -350 Descending Winnipeg Center
Fri 02:27:26 PM 49.9833 -96.8333 297° West 130 150 2,900 -400 Descending Winnipeg Center
Fri 02:28:26 PM 49.9833 -96.8833 270° West 110 127 2,600 -350 Descending Winnipeg Center
Fri 02:29:26 PM 49.9833 -96.9333 270° West 110 127 2,200 -350 Descending Winnipeg Center
Fri 02:30:26 PM 49.9833 -96.9667 270° West 100 115 1,900 -300 Descending Winnipeg Center
Fri 02:31:26 PM 50.0000 -97.0167 297° West 100 115 1,600 -300 Descending Winnipeg Center
Fri 02:32:26 PM 50.0167 -97.0500 308° West 90 104 1,300 -350 Descending Winnipeg Center
Fri 02:33:26 PM 50.0333 -97.0167 52° Northeast 80 92 900 -400 Descending Winnipeg Center

Login

Don't have an account? Register now (free) for customized features, flight alerts, and more!